createdAt,value
2019-05-11T00:00:05.276Z,82.8
2019-05-11T00:05:05.336Z,84.3
2019-05-11T00:10:05.344Z,82.9
2019-05-11T00:15:05.310Z,82.8
2019-05-11T00:20:05.458Z,83.5
2019-05-11T00:25:05.298Z,83.7
2019-05-11T00:30:05.350Z,82.8
2019-05-11T00:35:05.329Z,82.8
2019-05-11T00:40:15.142Z,84.3
2019-05-11T00:45:05.302Z,84.1
2019-05-11T00:50:05.348Z,83.3
2019-05-11T00:55:05.316Z,83.1
2019-05-11T01:00:05.341Z,84.7
2019-05-11T01:05:05.470Z,83.7
2019-05-11T01:10:05.469Z,84
2019-05-11T01:15:05.558Z,83
2019-05-11T01:20:05.463Z,84.2
2019-05-11T01:25:05.304Z,84.1
2019-05-11T01:30:05.366Z,83.5
2019-05-11T01:35:05.315Z,82.7
2019-05-11T01:40:05.443Z,83.9
2019-05-11T01:45:05.298Z,83.6
2019-05-11T01:50:05.504Z,84.9
2019-05-11T01:55:05.427Z,85.2
2019-05-11T02:00:05.381Z,84.6
2019-05-11T02:05:05.416Z,85.2
2019-05-11T02:10:05.332Z,84.5
2019-05-11T02:15:05.613Z,85
2019-05-11T02:20:05.442Z,83.7
2019-05-11T02:25:05.594Z,83.5
2019-05-11T02:30:05.434Z,84.4
2019-05-11T02:35:05.415Z,84
2019-05-11T02:40:05.433Z,83.8
2019-05-11T02:45:05.688Z,84.5
2019-05-11T02:50:05.417Z,84.3
2019-05-11T02:55:05.440Z,84.1
2019-05-11T03:00:05.616Z,84
2019-05-11T03:05:05.584Z,85.7
2019-05-11T03:10:05.489Z,84.4
2019-05-11T03:15:05.631Z,84.8
2019-05-11T03:20:05.436Z,84.6
2019-05-11T03:25:05.438Z,85.2
2019-05-11T03:30:05.516Z,85.4
2019-05-11T03:35:05.778Z,85.7
2019-05-11T03:40:05.460Z,85.4
2019-05-11T03:45:05.683Z,85.7
2019-05-11T03:50:05.485Z,86.3
2019-05-11T03:55:05.475Z,86.5
2019-05-11T04:00:05.458Z,86.2
2019-05-11T04:05:05.701Z,86.7
2019-05-11T04:10:05.475Z,85.6
2019-05-11T04:15:05.487Z,85.9
2019-05-11T04:20:05.461Z,86.2
2019-05-11T04:25:05.473Z,86.2
2019-05-11T04:30:05.472Z,86
2019-05-11T04:35:05.493Z,84.8
2019-05-11T04:40:05.491Z,84.7
2019-05-11T04:45:05.490Z,83.8
2019-05-11T04:50:05.495Z,84.4
2019-05-11T04:55:05.498Z,83.7
2019-05-11T05:00:05.537Z,83.2
2019-05-11T05:05:05.474Z,81.8
2019-05-11T05:10:05.671Z,80.9
2019-05-11T05:15:05.465Z,80
2019-05-11T05:20:05.484Z,78.5
2019-05-11T05:25:05.503Z,79.4
2019-05-11T05:30:05.586Z,77.8
2019-05-11T05:35:05.519Z,78.7
2019-05-11T05:40:05.546Z,77.2
2019-05-11T05:45:05.509Z,75.5
2019-05-11T05:50:05.657Z,75.7
2019-05-11T05:55:05.508Z,75.2
2019-05-11T06:00:05.718Z,74
2019-05-11T06:05:05.507Z,74.6
2019-05-11T06:10:05.537Z,74.1
2019-05-11T06:15:05.526Z,73.3
2019-05-11T06:20:06.368Z,73.4
2019-05-11T06:25:05.719Z,74.4
2019-05-11T06:30:05.612Z,71.6
2019-05-11T06:35:05.550Z,70.8
2019-05-11T06:40:05.548Z,70.7
2019-05-11T06:45:05.545Z,68.9
2019-05-11T06:50:05.648Z,68.3
2019-05-11T06:55:05.552Z,69.9
2019-05-11T07:00:05.594Z,68.6
2019-05-11T07:05:05.572Z,69.4
2019-05-11T07:10:05.566Z,66.6
2019-05-11T07:15:05.581Z,66.9
2019-05-11T07:20:05.557Z,66.2
2019-05-11T07:25:05.789Z,66.2
2019-05-11T07:30:05.582Z,64.9
2019-05-11T07:35:05.575Z,63.9
2019-05-11T07:40:05.557Z,66.2
2019-05-11T07:45:05.723Z,65.4
2019-05-11T07:50:07.979Z,65.8
2019-05-11T07:55:05.552Z,66.2
2019-05-11T08:00:07.874Z,66.6
2019-05-11T08:05:05.585Z,66.4
2019-05-11T08:10:08.527Z,65.6
2019-05-11T08:15:13.861Z,66.3
2019-05-11T08:20:05.599Z,67.7
2019-05-11T08:25:05.609Z,65.5
2019-05-11T08:30:05.601Z,66.1
2019-05-11T08:35:05.760Z,65
2019-05-11T08:40:08.160Z,63.1
2019-05-11T08:45:24.414Z,62.7
2019-05-11T08:50:08.264Z,63.6
2019-05-11T08:55:08.097Z,63.3
2019-05-11T09:00:08.296Z,65
2019-05-11T09:05:08.488Z,66.6
2019-05-11T09:10:08.379Z,67.8
2019-05-11T09:15:05.596Z,67.5
2019-05-11T09:20:05.628Z,68.1
2019-05-11T09:25:05.635Z,67.5
2019-05-11T09:30:08.584Z,66.8
2019-05-11T09:35:08.024Z,65.1
2019-05-11T09:40:08.415Z,64.5
2019-05-11T09:45:08.340Z,63.5
2019-05-11T09:50:05.647Z,63
2019-05-11T09:55:05.776Z,61.5
2019-05-11T10:00:05.824Z,61.2
2019-05-11T10:05:08.559Z,61.5
2019-05-11T10:10:05.646Z,61.8
2019-05-11T10:15:08.711Z,59.9
2019-05-11T10:20:05.635Z,60.8
2019-05-11T10:25:05.887Z,57.3
2019-05-11T10:30:08.428Z,57.5
2019-05-11T10:35:08.298Z,59.2
2019-05-11T10:40:05.652Z,57.2
2019-05-11T10:45:05.661Z,57.1
2019-05-11T10:50:05.668Z,57
2019-05-11T10:55:09.031Z,56.7
2019-05-11T11:00:08.163Z,56
2019-05-11T11:05:08.402Z,56.9
2019-05-11T11:10:09.152Z,55.3
2019-05-11T11:15:07.984Z,52.9
2019-05-11T11:20:08.250Z,52.8
2019-05-11T11:25:08.385Z,51.3
2019-05-11T11:30:05.672Z,51.6
2019-05-11T11:35:08.132Z,51.9
2019-05-11T11:40:05.717Z,52.9
2019-05-11T11:45:08.246Z,51.4
2019-05-11T11:50:05.716Z,49.5
2019-05-11T11:55:08.538Z,49.6
2019-05-11T12:00:05.701Z,48.5
2019-05-11T12:05:05.710Z,49.7
2019-05-11T12:10:08.071Z,48.3
2019-05-11T12:15:05.700Z,47.6
2019-05-11T12:20:05.990Z,49.6
2019-05-11T12:25:08.173Z,50.4
2019-05-11T12:30:05.752Z,47.5
2019-05-11T12:35:05.693Z,47.3
2019-05-11T12:40:08.201Z,48.4
2019-05-11T12:45:07.892Z,48.5
2019-05-11T12:50:08.128Z,49.9
2019-05-11T12:55:05.721Z,49.2
2019-05-11T13:00:05.744Z,45.2
2019-05-11T13:05:05.756Z,45.7
2019-05-11T13:10:08.100Z,44.1
2019-05-11T13:15:08.076Z,47.6
2019-05-11T13:20:05.742Z,46.9
2019-05-11T13:25:05.743Z,46.8
2019-05-11T13:30:08.296Z,46.5
2019-05-11T13:35:05.758Z,45
2019-05-11T13:40:08.061Z,44.4
2019-05-11T13:45:05.743Z,44.6
2019-05-11T13:50:08.013Z,47.5
2019-05-11T13:55:08.053Z,47.8
2019-05-11T14:00:08.215Z,47.8
2019-05-11T14:05:05.943Z,48.2
2019-05-11T14:10:08.348Z,49.6
2019-05-11T14:15:08.775Z,48.3
2019-05-11T14:20:09.219Z,49.1
2019-05-11T14:25:08.267Z,49.7
2019-05-11T14:30:07.907Z,50.9
2019-05-11T14:35:12.417Z,53.4
2019-05-11T14:40:05.771Z,56.1
2019-05-11T14:45:08.693Z,59.2
2019-05-11T14:50:08.412Z,61.5
2019-05-11T14:55:08.478Z,66.6
2019-05-11T15:00:08.613Z,71.7
2019-05-11T15:05:05.833Z,72.1
2019-05-11T15:10:08.366Z,72.6
2019-05-11T15:15:08.330Z,73.6
2019-05-11T15:20:08.159Z,74
2019-05-11T15:25:08.297Z,74.6
2019-05-11T15:30:08.207Z,75.9
2019-05-11T15:35:08.133Z,79.2
2019-05-11T15:40:08.361Z,79.2
2019-05-11T15:45:10.747Z,79.8
2019-05-11T15:50:08.522Z,79.8
2019-05-11T15:55:08.361Z,80.3
2019-05-11T16:00:08.799Z,80.6
2019-05-11T16:05:05.801Z,81.2
2019-05-11T16:10:08.328Z,82.1
2019-05-11T16:15:08.532Z,82.3
2019-05-11T16:20:05.853Z,82.6
2019-05-11T16:25:08.823Z,82.2
2019-05-11T16:30:06.205Z,82.5
2019-05-11T16:35:08.594Z,80.6
2019-05-11T16:40:06.311Z,81.1
2019-05-11T16:45:08.785Z,78.4
2019-05-11T16:50:09.043Z,79.4
2019-05-11T16:55:08.074Z,79.4
2019-05-11T17:00:05.861Z,79.9
2019-05-11T17:05:08.038Z,80.6
2019-05-11T17:10:08.671Z,80.2
2019-05-11T17:15:06.137Z,80.9
2019-05-11T17:20:08.639Z,80.6
2019-05-11T17:25:08.778Z,81.2
2019-05-11T17:30:08.377Z,82.1
2019-05-11T17:35:09.121Z,81
2019-05-11T17:40:09.363Z,80.3
2019-05-11T17:45:08.407Z,80.4
2019-05-11T17:50:08.550Z,80.4
2019-05-11T17:55:06.311Z,80
2019-05-11T18:00:05.961Z,81.2
2019-05-11T18:05:08.653Z,81.8
2019-05-11T18:10:08.463Z,80.8
2019-05-11T18:15:08.509Z,81.2
2019-05-11T18:20:18.486Z,82.5
2019-05-11T18:25:08.086Z,80.9
2019-05-11T18:30:08.539Z,82
2019-05-11T18:35:08.680Z,81.7
2019-05-11T18:40:05.900Z,81.7
2019-05-11T18:45:08.516Z,82.6
2019-05-11T18:50:05.925Z,83.1
2019-05-11T18:55:08.812Z,83.5
2019-05-11T19:00:08.386Z,83.6
2019-05-11T19:05:05.993Z,82.1
2019-05-11T19:10:08.828Z,83.8
2019-05-11T19:15:08.131Z,83.8
2019-05-11T19:20:08.247Z,82.3
2019-05-11T19:25:09.137Z,83
2019-05-11T19:30:08.182Z,82.9
2019-05-11T19:35:06.172Z,83.6
2019-05-11T19:40:08.726Z,84.1
2019-05-11T19:45:06.246Z,83.3
2019-05-11T19:50:09.106Z,83.7
2019-05-11T19:55:09.087Z,83.2
2019-05-11T20:00:08.506Z,83
2019-05-11T20:05:05.966Z,82.8
2019-05-11T20:10:08.087Z,84.8
2019-05-11T20:15:08.637Z,83.1
2019-05-11T20:20:08.641Z,82.5
2019-05-11T20:25:08.753Z,82.1
2019-05-11T20:30:05.996Z,82.5
2019-05-11T20:35:08.732Z,82.3
2019-05-11T20:40:09.061Z,84
2019-05-11T20:45:08.088Z,83
2019-05-11T20:50:08.182Z,84.9
2019-05-11T20:55:05.979Z,84.1
2019-05-11T21:00:08.381Z,84.8
2019-05-11T21:05:05.987Z,84.9
2019-05-11T21:10:09.022Z,85.6
2019-05-11T21:15:06.150Z,85.4
2019-05-11T21:20:06.141Z,85.6
2019-05-11T21:25:05.995Z,85.8
2019-05-11T21:30:08.435Z,85.7
2019-05-11T21:35:09.375Z,86
2019-05-11T21:40:08.965Z,86
2019-05-11T21:45:06.026Z,85.4
2019-05-11T21:50:08.533Z,85.5
2019-05-11T21:55:06.004Z,85.9
2019-05-11T22:00:09.199Z,85.7
2019-05-11T22:05:06.023Z,87.7
2019-05-11T22:10:06.028Z,86.6
2019-05-11T22:15:09.577Z,86
2019-05-11T22:20:08.019Z,85.5
2019-05-11T22:25:08.221Z,85.3
2019-05-11T22:30:08.746Z,86.5
2019-05-11T22:35:06.258Z,87.1
2019-05-11T22:40:08.643Z,86.7
2019-05-11T22:45:08.848Z,85.1
2019-05-11T22:50:08.191Z,86.6
2019-05-11T22:55:12.142Z,86.3
2019-05-11T23:00:08.481Z,86.4
2019-05-11T23:05:08.979Z,86.3
2019-05-11T23:10:08.877Z,86.2
2019-05-11T23:15:08.330Z,86.5
2019-05-11T23:20:06.053Z,86.3
2019-05-11T23:25:08.216Z,86.3
2019-05-11T23:30:08.478Z,86.3
2019-05-11T23:35:08.629Z,86.5
2019-05-11T23:40:06.045Z,85.3
2019-05-11T23:45:08.649Z,86.2
2019-05-11T23:50:08.465Z,85.7
2019-05-11T23:55:08.557Z,86
